Time;durP1;ratioP1;P1;durP2;ratioP2;P2;SDS_P1;SDS_P2;PMS_P1;PMS_P2;Temp;Humidity;BMP_temperature;BMP_pressure;BME280_temperature;BME280_humidity;BME280_pressure;Samples;Min_cycle;Max_cycle;Signal;HPM_P1;HPM_P2
2021/12/02 00:01:38;;;;;;;5.50;1.63;;;7.10;99.90;;;;;;5093706;28;21025;-89
2021/12/02 00:04:06;;;;;;;0.90;0.70;;;7.00;99.90;;;;;;5094040;28;20478;-89
2021/12/02 00:06:33;;;;;;;1.25;0.80;;;7.00;99.90;;;;;;5093792;28;20668;-89
2021/12/02 00:08:59;;;;;;;1.60;0.73;;;7.00;99.90;;;;;;5093544;28;20234;-88
2021/12/02 00:11:26;;;;;;;2.70;0.80;;;7.10;99.90;;;;;;5092149;28;20535;-89
2021/12/02 00:13:56;;;;;;;1.52;0.75;;;7.00;99.90;;;;;;5093541;28;20443;-87
2021/12/02 00:16:29;;;;;;;5.83;0.97;;;7.00;99.90;;;;;;5093680;28;20187;-87
2021/12/02 00:21:44;;;;;;;1.85;0.80;;;7.00;99.90;;;;;;5093989;28;20441;-86
2021/12/02 00:24:14;;;;;;;4.63;1.13;;;7.00;99.90;;;;;;5093676;28;20195;-86
2021/12/02 00:26:40;;;;;;;2.10;0.70;;;7.00;99.90;;;;;;5093493;28;20883;-87
2021/12/02 00:29:09;;;;;;;2.50;0.80;;;7.00;99.90;;;;;;5093021;28;20478;-85
2021/12/02 00:31:37;;;;;;;0.80;0.60;;;7.00;99.90;;;;;;5093221;28;20971;-87
2021/12/02 00:34:07;;;;;;;1.27;0.80;;;6.90;99.90;;;;;;5093631;28;20468;-86
2021/12/02 00:36:37;;;;;;;3.00;0.90;;;6.90;99.90;;;;;;5093012;28;20458;-87
2021/12/02 00:39:08;;;;;;;2.70;0.80;;;6.90;99.90;;;;;;5092081;28;20199;-87
2021/12/02 00:41:35;;;;;;;1.27;0.90;;;6.80;99.90;;;;;;5092770;28;20874;-86
2021/12/02 00:44:01;;;;;;;1.83;0.80;;;6.80;99.90;;;;;;5093990;28;20447;-86
2021/12/02 00:46:31;;;;;;;1.60;0.87;;;6.80;99.90;;;;;;5094076;28;20255;-87
2021/12/02 00:49:02;;;;;;;1.87;1.00;;;6.80;99.90;;;;;;5088121;28;20451;-87
2021/12/02 00:51:29;;;;;;;2.50;0.90;;;6.80;99.90;;;;;;5094100;28;20505;-86
2021/12/02 00:54:00;;;;;;;3.63;0.90;;;6.90;99.90;;;;;;5093579;28;20700;-89
2021/12/02 00:56:28;;;;;;;1.17;0.60;;;6.90;99.90;;;;;;5093904;28;20263;-89
2021/12/02 00:58:55;;;;;;;2.10;0.97;;;6.90;99.90;;;;;;5093755;28;21007;-89
2021/12/02 01:01:23;;;;;;;1.40;0.90;;;6.90;99.90;;;;;;5093306;28;20477;-88
2021/12/02 01:03:54;;;;;;;1.63;0.70;;;7.00;99.90;;;;;;5093589;28;20654;-89
2021/12/02 01:06:21;;;;;;;1.42;0.60;;;6.90;99.90;;;;;;5093036;28;21013;-90
2021/12/02 01:08:47;;;;;;;2.60;0.90;;;6.80;99.90;;;;;;5092864;28;20607;-89
2021/12/02 01:11:14;;;;;;;2.13;1.00;;;6.70;99.90;;;;;;5093343;28;20482;-88
2021/12/02 01:13:42;;;;;;;2.05;1.42;;;6.60;99.90;;;;;;5093933;28;20189;-89
2021/12/02 01:16:09;;;;;;;1.52;0.80;;;6.40;99.90;;;;;;5093319;28;20185;-89
2021/12/02 01:18:35;;;;;;;1.40;1.00;;;6.20;99.90;;;;;;5093283;28;20181;-89
2021/12/02 01:21:04;;;;;;;1.63;1.00;;;6.00;99.90;;;;;;5092580;28;20477;-89
2021/12/02 01:23:33;;;;;;;1.55;0.60;;;5.90;99.90;;;;;;5093098;28;20866;-88
2021/12/02 01:26:01;;;;;;;2.60;0.50;;;5.70;99.90;;;;;;5092884;28;20656;-88
2021/12/02 01:28:29;;;;;;;0.60;0.60;;;5.50;99.90;;;;;;5092882;28;20238;-89
2021/12/02 01:30:57;;;;;;;1.30;0.50;;;5.40;99.90;;;;;;5093110;28;20211;-90
2021/12/02 01:33:27;;;;;;;0.80;0.60;;;5.30;99.90;;;;;;5092665;28;20220;-90
2021/12/02 01:35:57;;;;;;;1.10;0.70;;;5.20;99.90;;;;;;5092162;28;20249;-90
2021/12/02 01:38:24;;;;;;;1.73;0.93;;;5.10;99.90;;;;;;5092671;28;20267;-90
2021/12/02 01:40:52;;;;;;;1.13;0.65;;;5.00;99.90;;;;;;5092149;28;20204;-89
2021/12/02 01:43:20;;;;;;;0.60;0.50;;;5.00;99.90;;;;;;5092481;28;20255;-90
2021/12/02 01:45:47;;;;;;;1.30;0.45;;;4.90;99.90;;;;;;5092645;28;20648;-89
2021/12/02 01:48:25;;;;;;;1.05;0.50;;;4.80;99.90;;;;;;5086776;28;20283;-90
2021/12/02 01:51:01;;;;;;;1.02;0.73;;;4.80;99.90;;;;;;5093157;28;20181;-89
2021/12/02 01:53:32;;;;;;;0.90;0.60;;;4.80;99.90;;;;;;5093393;28;20184;-90
2021/12/02 01:56:09;;;;;;;1.42;0.50;;;4.70;99.90;;;;;;5095917;28;20629;-88
2021/12/02 01:58:43;;;;;;;1.02;0.57;;;4.70;99.90;;;;;;5096645;28;20177;-88
2021/12/02 02:01:16;;;;;;;3.13;0.50;;;4.80;99.90;;;;;;5096923;28;20181;-91
2021/12/02 02:03:45;;;;;;;0.70;0.55;;;4.80;99.90;;;;;;5097168;28;20227;-90
2021/12/02 02:06:13;;;;;;;0.60;0.60;;;4.70;99.90;;;;;;5096755;28;20208;-86
2021/12/02 02:08:46;;;;;;;2.70;0.65;;;4.70;99.90;;;;;;5097100;28;20206;-89
2021/12/02 02:11:12;;;;;;;0.60;0.55;;;4.60;99.90;;;;;;5095648;28;20654;-89
2021/12/02 02:13:41;;;;;;;1.75;0.73;;;4.60;99.90;;;;;;5096322;28;20181;-89
2021/12/02 02:16:07;;;;;;;2.10;1.40;;;4.60;99.90;;;;;;5096328;28;20185;-89
2021/12/02 02:18:35;;;;;;;0.75;0.63;;;4.60;99.90;;;;;;5096546;28;20185;-87
2021/12/02 02:21:06;;;;;;;1.67;0.63;;;4.60;99.90;;;;;;5095613;28;20211;-88
2021/12/02 02:23:38;;;;;;;2.00;0.50;;;4.70;99.90;;;;;;5095955;28;20234;-90
2021/12/02 02:26:06;;;;;;;1.33;0.60;;;4.70;99.90;;;;;;5095789;28;20215;-89
2021/12/02 02:28:35;;;;;;;0.70;0.50;;;4.60;99.90;;;;;;5096089;28;20602;-88
2021/12/02 02:31:02;;;;;;;3.80;0.47;;;4.50;99.90;;;;;;5095925;28;20238;-88
2021/12/02 02:33:35;;;;;;;0.88;0.50;;;4.30;99.90;;;;;;5096012;28;20586;-88
2021/12/02 02:36:04;;;;;;;0.77;0.57;;;4.30;99.90;;;;;;5095344;28;20184;-88
2021/12/02 02:38:30;;;;;;;1.52;0.68;;;4.30;99.90;;;;;;5095545;28;20603;-88
2021/12/02 02:40:59;;;;;;;0.60;0.47;;;4.30;99.90;;;;;;5096314;28;20296;-88
2021/12/02 02:43:27;;;;;;;2.65;0.80;;;4.20;99.90;;;;;;5096235;28;20187;-88
2021/12/02 02:45:53;;;;;;;2.83;0.80;;;4.20;99.90;;;;;;5095637;28;20222;-84
2021/12/02 02:48:20;;;;;;;1.65;0.80;;;4.20;99.90;;;;;;5090025;28;20212;-87
2021/12/02 02:50:47;;;;;;;1.08;0.60;;;4.20;99.90;;;;;;5095360;28;20268;-87
2021/12/02 02:53:18;;;;;;;0.70;0.50;;;4.20;99.90;;;;;;5095143;28;20263;-87
2021/12/02 02:55:51;;;;;;;3.10;0.60;;;4.20;99.90;;;;;;5095337;28;20224;-87
2021/12/02 02:58:26;;;;;;;0.70;0.60;;;4.20;99.90;;;;;;5078886;28;20204;-86
2021/12/02 03:01:00;;;;;;;1.70;0.80;;;4.20;99.90;;;;;;5095562;28;20257;-86
2021/12/02 03:03:34;;;;;;;0.90;0.90;;;4.30;99.90;;;;;;5095667;28;20184;-86
2021/12/02 03:06:20;;;;;;;0.70;0.50;;;4.30;99.90;;;;;;5094700;28;20184;-86
2021/12/02 03:08:54;;;;;;;0.90;0.73;;;4.30;99.90;;;;;;5095632;28;20176;-86
2021/12/02 03:11:22;;;;;;;1.05;0.60;;;4.40;99.90;;;;;;5095299;28;20238;-86
2021/12/02 03:13:51;;;;;;;3.10;0.70;;;4.40;99.90;;;;;;5095199;28;20189;-86
2021/12/02 03:19:02;;;;;;;1.90;0.57;;;4.50;99.90;;;;;;5085207;28;20279;-85
2021/12/02 03:21:29;;;;;;;1.40;0.73;;;4.40;99.90;;;;;;5095350;28;20228;-87
2021/12/02 03:24:01;;;;;;;2.53;0.80;;;4.40;99.90;;;;;;5095256;28;20196;-87
2021/12/02 03:26:29;;;;;;;1.20;0.70;;;4.40;99.90;;;;;;5094725;28;20232;-86
2021/12/02 03:28:55;;;;;;;1.77;0.60;;;4.50;99.90;;;;;;5094580;28;20264;-87
2021/12/02 03:31:23;;;;;;;1.35;0.65;;;4.40;99.90;;;;;;5094250;28;20215;-88
2021/12/02 03:33:49;;;;;;;2.78;0.70;;;4.40;99.90;;;;;;5095123;28;20275;-88
2021/12/02 03:36:18;;;;;;;1.15;0.50;;;4.40;99.90;;;;;;5094734;28;20215;-86
2021/12/02 03:38:46;;;;;;;0.70;0.60;;;4.40;99.90;;;;;;5094326;28;20223;-87
2021/12/02 03:41:14;;;;;;;1.23;0.60;;;4.40;99.90;;;;;;5094126;28;20215;-86
2021/12/02 03:43:43;;;;;;;3.88;0.95;;;4.40;99.90;;;;;;5094131;28;20192;-86
2021/12/02 03:46:11;;;;;;;3.10;1.05;;;4.40;99.90;;;;;;5094267;28;20264;-86
2021/12/02 03:48:39;;;;;;;2.45;0.70;;;4.40;99.90;;;;;;5091980;28;20188;-86
2021/12/02 03:51:06;;;;;;;1.40;0.68;;;4.40;99.90;;;;;;5094853;28;20529;-85
2021/12/02 03:53:34;;;;;;;2.53;0.82;;;4.40;99.90;;;;;;5095114;28;20279;-85
2021/12/02 03:56:01;;;;;;;0.85;0.70;;;4.40;99.90;;;;;;5094572;28;20248;-86
2021/12/02 03:58:29;;;;;;;0.98;0.88;;;4.50;99.90;;;;;;5094182;28;20192;-86
2021/12/02 04:00:56;;;;;;;2.00;0.60;;;4.60;99.90;;;;;;5093891;28;20716;-86
2021/12/02 04:03:23;;;;;;;4.05;1.35;;;4.50;99.90;;;;;;5094650;28;20216;-86
2021/12/02 04:05:49;;;;;;;1.98;0.63;;;4.50;99.90;;;;;;5094202;28;20682;-86
2021/12/02 04:08:17;;;;;;;1.40;0.75;;;4.50;99.90;;;;;;5094294;28;20730;-85
2021/12/02 04:10:44;;;;;;;3.53;1.00;;;4.50;99.90;;;;;;5094370;28;20710;-86
2021/12/02 04:13:16;;;;;;;4.00;0.60;;;4.50;99.90;;;;;;5094397;28;20189;-85
2021/12/02 04:15:50;;;;;;;2.05;1.27;;;4.60;99.90;;;;;;5093664;28;20192;-85
2021/12/02 04:18:16;;;;;;;0.70;0.63;;;4.50;99.90;;;;;;5093090;28;20192;-85
2021/12/02 04:20:43;;;;;;;1.55;0.70;;;4.50;99.90;;;;;;5093786;28;20220;-85
2021/12/02 04:23:10;;;;;;;1.60;0.70;;;4.50;99.90;;;;;;5093719;28;20185;-86
2021/12/02 04:25:36;;;;;;;2.88;1.17;;;4.40;99.90;;;;;;5094081;28;20185;-85
2021/12/02 04:28:03;;;;;;;0.80;0.60;;;4.30;99.90;;;;;;5093590;28;20311;-85
2021/12/02 04:30:30;;;;;;;0.70;0.60;;;4.30;99.90;;;;;;5094164;28;20275;-86
2021/12/02 04:32:58;;;;;;;0.77;0.70;;;4.30;99.90;;;;;;5093642;28;20220;-85
2021/12/02 04:35:25;;;;;;;2.38;0.90;;;4.30;99.90;;;;;;5093597;28;20691;-87
2021/12/02 04:37:52;;;;;;;1.55;0.57;;;4.30;99.90;;;;;;5093920;28;20620;-87
2021/12/02 04:40:22;;;;;;;1.95;0.60;;;4.40;99.90;;;;;;5093695;28;20188;-87
2021/12/02 04:42:49;;;;;;;1.02;0.70;;;4.40;99.90;;;;;;5093454;28;20626;-87
2021/12/02 04:45:16;;;;;;;3.70;1.02;;;4.40;99.90;;;;;;5093322;28;20193;-88
2021/12/02 04:47:42;;;;;;;1.00;0.68;;;4.30;99.90;;;;;;5088630;28;20300;-85
2021/12/02 04:50:11;;;;;;;1.25;0.60;;;4.30;99.90;;;;;;5073424;28;20189;-85
2021/12/02 04:52:38;;;;;;;1.10;0.70;;;4.30;99.90;;;;;;5072721;28;20193;-87
2021/12/02 04:55:05;;;;;;;0.90;0.50;;;4.20;99.90;;;;;;5072738;28;20304;-87
2021/12/02 04:57:32;;;;;;;2.30;0.95;;;4.30;99.90;;;;;;5073312;28;20235;-91
2021/12/02 04:59:58;;;;;;;1.50;0.60;;;4.20;99.90;;;;;;5073100;28;20284;-83
2021/12/02 05:02:25;;;;;;;0.82;0.60;;;4.20;99.90;;;;;;5073029;28;20277;-85
2021/12/02 05:04:51;;;;;;;2.78;0.77;;;4.20;99.90;;;;;;5073146;28;20223;-87
2021/12/02 05:07:19;;;;;;;2.40;0.80;;;4.20;99.90;;;;;;5073515;28;20260;-86
2021/12/02 05:09:45;;;;;;;1.90;0.70;;;4.20;99.90;;;;;;5072821;28;20284;-87
2021/12/02 05:12:12;;;;;;;1.73;0.70;;;4.10;99.90;;;;;;5072920;28;20280;-86
2021/12/02 05:14:38;;;;;;;1.50;0.80;;;4.10;99.90;;;;;;5072679;28;20221;-85
2021/12/02 05:17:05;;;;;;;4.18;0.75;;;4.10;99.90;;;;;;5073074;28;20235;-84
2021/12/02 05:19:32;;;;;;;3.47;0.70;;;4.10;99.90;;;;;;5072956;28;20217;-87
2021/12/02 05:21:58;;;;;;;1.67;0.60;;;4.10;99.90;;;;;;5073115;28;20284;-86
2021/12/02 05:24:26;;;;;;;0.80;0.70;;;4.10;99.90;;;;;;5072998;28;20276;-86
2021/12/02 05:26:53;;;;;;;1.10;0.85;;;4.10;99.90;;;;;;5072254;28;20251;-85
2021/12/02 05:29:19;;;;;;;2.33;0.70;;;4.20;99.90;;;;;;5075836;28;20220;-87
2021/12/02 05:31:46;;;;;;;0.70;0.52;;;4.10;99.90;;;;;;5077384;28;20247;-85
2021/12/02 05:34:12;;;;;;;3.85;0.68;;;4.20;99.90;;;;;;5077343;28;20719;-87
2021/12/02 05:36:39;;;;;;;2.17;0.73;;;4.10;99.90;;;;;;5077126;28;20280;-86
2021/12/02 05:39:05;;;;;;;1.05;0.70;;;4.10;99.90;;;;;;5076445;28;20283;-86
2021/12/02 05:41:33;;;;;;;1.95;0.80;;;4.00;99.90;;;;;;5076454;28;20258;-86
2021/12/02 05:44:00;;;;;;;1.80;0.90;;;4.10;99.90;;;;;;5092384;28;20216;-86
2021/12/02 05:46:27;;;;;;;7.28;1.75;;;4.10;99.90;;;;;;5096721;28;20199;-86
2021/12/02 05:48:53;;;;;;;1.50;1.33;;;4.10;99.90;;;;;;5081514;28;20249;-88
2021/12/02 05:51:20;;;;;;;1.75;0.90;;;4.10;99.90;;;;;;5076259;28;20225;-87
2021/12/02 05:53:47;;;;;;;1.75;1.00;;;4.10;99.90;;;;;;5076367;28;20602;-87
2021/12/02 05:56:13;;;;;;;0.90;0.60;;;4.20;99.90;;;;;;5076111;28;20255;-88
2021/12/02 05:58:41;;;;;;;1.10;0.75;;;4.20;99.90;;;;;;5076238;28;20220;-88
2021/12/02 06:01:08;;;;;;;4.15;0.80;;;4.20;99.90;;;;;;5076102;28;20271;-87
2021/12/02 06:03:36;;;;;;;3.38;0.70;;;4.20;99.90;;;;;;5076110;28;20189;-86
2021/12/02 06:06:03;;;;;;;2.95;0.65;;;4.20;99.90;;;;;;5076761;28;20209;-87
2021/12/02 06:08:30;;;;;;;0.98;0.90;;;4.20;99.90;;;;;;5076285;28;20263;-90
2021/12/02 06:10:57;;;;;;;0.70;0.70;;;4.30;99.90;;;;;;5075798;28;20194;-89
2021/12/02 06:13:24;;;;;;;3.17;1.25;;;4.30;99.90;;;;;;5076061;28;20272;-86
2021/12/02 06:15:53;;;;;;;1.80;0.70;;;4.30;99.90;;;;;;5075980;28;20190;-84
2021/12/02 06:18:19;;;;;;;2.25;0.80;;;4.40;99.90;;;;;;5076603;28;20217;-86
2021/12/02 06:20:51;;;;;;;1.52;0.70;;;4.40;99.90;;;;;;5076830;28;20193;-86
2021/12/02 06:23:18;;;;;;;1.23;0.70;;;4.40;99.90;;;;;;5076122;28;20551;-85
2021/12/02 06:25:47;;;;;;;1.20;0.80;;;4.40;99.90;;;;;;5076317;28;20189;-88
2021/12/02 06:28:15;;;;;;;2.53;1.13;;;4.40;99.90;;;;;;5075861;28;20217;-89
2021/12/02 06:30:42;;;;;;;1.35;0.90;;;4.40;99.90;;;;;;5075585;28;20189;-89
2021/12/02 06:33:11;;;;;;;0.88;0.82;;;4.50;99.90;;;;;;5075908;28;20221;-86
2021/12/02 06:35:38;;;;;;;1.83;0.60;;;4.40;99.90;;;;;;5076001;28;20189;-87
2021/12/02 06:38:04;;;;;;;2.15;0.80;;;4.50;99.90;;;;;;5075476;28;20228;-86
2021/12/02 06:40:31;;;;;;;1.33;0.60;;;4.40;99.90;;;;;;5092291;28;20288;-86
2021/12/02 06:42:58;;;;;;;1.23;0.85;;;4.40;99.90;;;;;;5094634;28;20188;-87
2021/12/02 06:45:25;;;;;;;1.67;0.77;;;4.30;99.90;;;;;;5087966;28;20337;-87
2021/12/02 06:47:54;;;;;;;2.45;0.70;;;4.30;99.90;;;;;;5094908;28;20265;-87
2021/12/02 06:50:21;;;;;;;1.65;0.77;;;4.20;99.90;;;;;;5095357;28;20189;-87
2021/12/02 06:52:50;;;;;;;2.88;0.90;;;4.20;99.90;;;;;;5095571;28;20216;-85
2021/12/02 06:55:18;;;;;;;1.13;1.02;;;4.20;99.90;;;;;;5095493;28;20252;-87
2021/12/02 06:57:45;;;;;;;1.48;0.90;;;4.20;99.90;;;;;;5096183;28;20690;-88
2021/12/02 07:00:14;;;;;;;1.60;1.10;;;4.20;99.90;;;;;;5095765;28;20280;-90
2021/12/02 07:02:41;;;;;;;2.28;0.98;;;4.30;99.90;;;;;;5095368;28;20192;-89
2021/12/02 07:05:10;;;;;;;2.45;0.75;;;4.30;99.90;;;;;;5095162;28;20630;-86
2021/12/02 07:07:39;;;;;;;0.93;0.82;;;4.30;99.90;;;;;;5095661;28;20216;-87
2021/12/02 07:10:07;;;;;;;1.10;0.80;;;4.20;99.90;;;;;;5095684;28;20217;-86
2021/12/02 07:12:35;;;;;;;0.90;0.80;;;4.20;99.90;;;;;;5095597;28;20284;-85
2021/12/02 07:15:06;;;;;;;1.13;0.70;;;4.10;99.90;;;;;;5095782;28;20189;-90
2021/12/02 07:17:33;;;;;;;1.33;0.82;;;4.00;99.90;;;;;;5095116;28;20192;-90
2021/12/02 07:20:00;;;;;;;1.65;0.70;;;3.90;99.90;;;;;;5094699;28;20223;-90
2021/12/02 07:22:27;;;;;;;0.90;0.80;;;3.90;99.90;;;;;;5095109;28;20199;-90
2021/12/02 07:24:55;;;;;;;3.20;1.02;;;3.90;99.90;;;;;;5094768;28;20216;-92
2021/12/02 07:27:22;;;;;;;4.15;1.00;;;3.80;99.90;;;;;;5092704;28;20223;-90
2021/12/02 07:29:49;;;;;;;2.38;0.70;;;3.90;99.90;;;;;;5094441;28;20283;-92
2021/12/02 07:32:15;;;;;;;2.17;1.20;;;4.00;99.90;;;;;;5094840;28;20692;-90
2021/12/02 07:34:44;;;;;;;1.58;0.88;;;4.00;99.90;;;;;;5094878;28;20192;-91
2021/12/02 07:37:13;;;;;;;2.83;0.80;;;4.00;99.90;;;;;;5095342;28;20193;-93
2021/12/02 07:39:40;;;;;;;5.13;1.23;;;4.00;99.90;;;;;;5095033;28;20216;-91
2021/12/02 07:42:08;;;;;;;1.45;1.08;;;4.10;99.90;;;;;;5094685;28;20246;-91
2021/12/02 07:44:35;;;;;;;3.35;0.93;;;4.20;99.90;;;;;;5094164;28;20703;-93
2021/12/02 07:47:02;;;;;;;2.08;1.17;;;4.20;99.90;;;;;;5091212;28;20667;-92
2021/12/02 07:49:28;;;;;;;1.45;0.80;;;4.20;99.90;;;;;;5075215;28;20351;-95
2021/12/02 07:52:00;;;;;;;4.60;0.90;;;4.10;99.90;;;;;;5076096;28;20244;-93
2021/12/02 07:54:30;;;;;;;2.83;0.85;;;4.10;99.90;;;;;;5093631;28;20658;-94
2021/12/02 07:56:56;;;;;;;2.92;1.40;;;4.10;99.90;;;;;;5095301;28;20181;-91
2021/12/02 07:59:25;;;;;;;1.33;0.70;;;4.30;99.90;;;;;;5094332;28;20213;-91
2021/12/02 08:01:55;;;;;;;2.35;0.90;;;4.30;99.90;;;;;;5094231;28;20208;-92
2021/12/02 08:04:22;;;;;;;1.05;0.82;;;4.40;99.90;;;;;;5094247;28;20648;-92
2021/12/02 08:06:48;;;;;;;1.33;1.08;;;4.50;99.90;;;;;;5094140;28;20271;-89
2021/12/02 08:09:15;;;;;;;2.70;0.90;;;4.50;99.90;;;;;;5094457;28;20715;-90
2021/12/02 08:11:42;;;;;;;1.10;0.75;;;4.50;99.90;;;;;;5094513;28;20239;-91
2021/12/02 08:14:13;;;;;;;1.50;0.90;;;4.50;99.90;;;;;;5093552;28;20709;-90
2021/12/02 08:16:41;;;;;;;1.10;0.70;;;4.60;99.90;;;;;;5093851;28;20608;-90
2021/12/02 08:19:08;;;;;;;2.65;0.80;;;4.60;99.90;;;;;;5094512;28;20208;-90
2021/12/02 08:21:35;;;;;;;1.20;1.00;;;4.70;99.90;;;;;;5094569;28;20189;-90
2021/12/02 08:24:01;;;;;;;2.55;0.90;;;4.70;99.90;;;;;;5093324;28;20279;-90
2021/12/02 08:26:28;;;;;;;2.35;1.00;;;4.80;99.90;;;;;;5093914;28;20216;-90
2021/12/02 08:28:54;;;;;;;2.35;0.82;;;4.80;99.90;;;;;;5093641;28;20710;-91
2021/12/02 08:31:21;;;;;;;1.20;0.90;;;4.80;99.90;;;;;;5093914;28;20185;-91
2021/12/02 08:33:51;;;;;;;1.60;1.05;;;4.80;99.90;;;;;;5094431;28;20185;-92
2021/12/02 08:36:22;;;;;;;4.78;1.42;;;4.80;99.90;;;;;;5093435;28;20190;-89
2021/12/02 08:38:49;;;;;;;1.42;1.00;;;4.80;99.90;;;;;;5092821;28;20191;-90
2021/12/02 08:41:18;;;;;;;1.95;1.10;;;4.80;99.90;;;;;;5093744;28;20176;-90
2021/12/02 08:43:45;;;;;;;1.73;0.80;;;4.90;99.90;;;;;;5094505;28;20189;-90
2021/12/02 08:46:11;;;;;;;1.60;0.90;;;4.90;99.90;;;;;;5093380;28;20271;-91
2021/12/02 08:48:38;;;;;;;1.33;0.65;;;5.00;99.90;;;;;;5093444;28;20251;-91
2021/12/02 08:51:06;;;;;;;2.88;0.80;;;5.00;99.90;;;;;;5077300;28;20603;-90
2021/12/02 08:53:32;;;;;;;0.80;0.80;;;5.00;99.90;;;;;;5093902;28;20218;-88
2021/12/02 08:55:59;;;;;;;0.90;0.70;;;5.00;99.90;;;;;;5093087;28;20555;-90
2021/12/02 08:58:26;;;;;;;0.90;0.80;;;4.90;99.90;;;;;;5094241;28;20184;-90
2021/12/02 09:00:52;;;;;;;1.63;0.93;;;4.90;99.90;;;;;;5092737;28;20263;-90
2021/12/02 09:03:19;;;;;;;2.10;0.90;;;4.90;99.90;;;;;;5093627;28;20208;-91
2021/12/02 09:05:45;;;;;;;1.40;0.80;;;5.00;99.90;;;;;;5093002;28;20280;-90
2021/12/02 09:08:15;;;;;;;1.35;0.70;;;5.00;99.90;;;;;;5093824;28;20295;-91
2021/12/02 09:10:42;;;;;;;2.47;1.15;;;5.10;99.90;;;;;;5093128;28;20188;-88
2021/12/02 09:13:10;;;;;;;9.32;1.08;;;5.00;99.90;;;;;;5093183;28;20540;-87
2021/12/02 09:15:37;;;;;;;1.35;0.80;;;5.00;99.90;;;;;;5093220;28;20539;-88
2021/12/02 09:18:04;;;;;;;3.72;0.80;;;4.90;99.90;;;;;;5093042;28;20299;-88
2021/12/02 09:20:30;;;;;;;2.65;0.90;;;4.70;99.90;;;;;;5093109;28;20220;-88
2021/12/02 09:22:57;;;;;;;0.88;0.70;;;4.60;99.90;;;;;;5093637;28;20231;-88
2021/12/02 09:25:25;;;;;;;1.95;0.75;;;4.50;99.90;;;;;;5093307;28;20277;-88
2021/12/02 09:27:51;;;;;;;2.80;0.80;;;4.40;99.90;;;;;;5092576;28;20207;-88
2021/12/02 09:30:18;;;;;;;1.55;1.00;;;4.30;99.90;;;;;;5093696;28;20279;-91
2021/12/02 09:32:45;;;;;;;1.30;1.20;;;4.30;99.90;;;;;;5092846;28;20212;-92
2021/12/02 09:35:12;;;;;;;2.05;0.70;;;4.30;99.90;;;;;;5093841;28;20204;-91
2021/12/02 09:37:39;;;;;;;2.05;1.15;;;4.20;99.90;;;;;;5093294;28;20184;-88
2021/12/02 09:40:10;;;;;;;0.82;0.68;;;4.20;99.90;;;;;;5092919;28;20764;-89
2021/12/02 09:42:38;;;;;;;3.58;0.88;;;4.20;99.90;;;;;;5092775;28;20192;-88
2021/12/02 09:45:05;;;;;;;2.10;0.80;;;4.20;99.90;;;;;;5092479;28;20267;-90
2021/12/02 09:47:34;;;;;;;3.53;0.85;;;4.20;99.90;;;;;;5093162;28;20679;-92
2021/12/02 09:50:05;;;;;;;3.42;0.85;;;4.20;99.90;;;;;;5093331;28;20251;-85
2021/12/02 09:52:35;;;;;;;1.60;0.70;;;4.20;99.90;;;;;;5086951;28;20585;-88
2021/12/02 09:55:06;;;;;;;2.55;0.70;;;4.10;99.90;;;;;;5084010;28;20220;-88
2021/12/02 09:57:38;;;;;;;1.13;0.70;;;4.00;99.90;;;;;;5092643;28;20177;-86
2021/12/02 10:00:10;;;;;;;1.27;0.80;;;3.90;99.90;;;;;;5092260;28;20192;-87
2021/12/02 10:02:42;;;;;;;1.98;1.02;;;3.90;99.90;;;;;;5088857;28;20370;-87
2021/12/02 10:05:12;;;;;;;2.42;0.80;;;3.90;99.90;;;;;;5092784;28;20181;-87
2021/12/02 10:07:52;;;;;;;0.80;0.60;;;3.80;99.90;;;;;;5092775;28;20188;-88
2021/12/02 10:10:29;;;;;;;1.63;0.90;;;3.90;99.90;;;;;;5092280;28;20216;-87
2021/12/02 10:13:15;;;;;;;2.05;0.85;;;3.80;99.90;;;;;;5091755;28;20532;-87
2021/12/02 10:15:52;;;;;;;2.65;0.93;;;3.90;99.90;;;;;;5093677;28;20572;-87
2021/12/02 10:18:23;;;;;;;2.08;1.00;;;3.90;99.90;;;;;;5096148;28;20211;-88
2021/12/02 10:20:51;;;;;;;2.22;0.75;;;3.90;99.90;;;;;;5095963;28;20238;-87
2021/12/02 10:23:22;;;;;;;1.25;0.90;;;3.80;99.90;;;;;;5096398;28;20555;-87
2021/12/02 10:25:54;;;;;;;1.65;0.70;;;3.80;99.90;;;;;;5095367;28;20177;-87
2021/12/02 10:28:21;;;;;;;2.28;0.70;;;3.90;99.90;;;;;;5095390;28;20212;-87
2021/12/02 10:30:51;;;;;;;1.50;0.77;;;3.90;99.90;;;;;;5095145;28;20199;-87
2021/12/02 10:33:30;;;;;;;3.65;0.70;;;3.90;99.90;;;;;;5095111;28;20615;-87
2021/12/02 10:35:56;;;;;;;1.25;0.75;;;3.90;99.90;;;;;;5094985;28;20230;-87
2021/12/02 10:38:33;;;;;;;2.72;0.93;;;3.90;99.90;;;;;;5095598;28;20244;-87
2021/12/02 10:41:01;;;;;;;1.10;1.00;;;3.90;99.90;;;;;;5089306;28;20228;-87
2021/12/02 10:43:28;;;;;;;1.55;0.80;;;3.90;99.90;;;;;;5093874;28;20212;-83
2021/12/02 10:46:13;;;;;;;5.43;1.23;;;3.90;99.90;;;;;;5092524;28;20271;-84
2021/12/02 10:48:51;;;;;;;3.80;2.58;;;3.90;99.90;;;;;;5094483;28;20304;-84
2021/12/02 10:51:38;;;;;;;1.10;0.73;;;3.90;99.90;;;;;;5095365;28;20237;-84
2021/12/02 10:54:08;;;;;;;2.45;1.13;;;3.90;99.90;;;;;;5094900;28;20215;-83
2021/12/02 10:56:37;;;;;;;2.22;0.82;;;3.90;99.90;;;;;;5091108;28;20275;-83
2021/12/02 10:59:33;;;;;;;3.92;1.15;;;3.90;99.90;;;;;;5095408;28;20302;-84
2021/12/02 11:02:04;;;;;;;1.45;1.00;;;3.90;99.90;;;;;;5094977;28;20188;-84
2021/12/02 11:04:40;;;;;;;1.50;0.90;;;3.90;99.90;;;;;;5094932;28;20667;-84
2021/12/02 11:07:11;;;;;;;3.38;0.98;;;3.90;99.90;;;;;;5078888;28;20188;-84
2021/12/02 11:09:40;;;;;;;1.60;0.80;;;3.90;99.90;;;;;;5088409;28;20690;-84
2021/12/02 11:12:09;;;;;;;2.28;0.80;;;3.90;99.90;;;;;;5095004;28;20281;-84
2021/12/02 11:14:37;;;;;;;1.13;0.88;;;3.90;99.90;;;;;;5094546;28;20228;-84
2021/12/02 11:17:10;;;;;;;0.90;0.73;;;3.90;99.90;;;;;;5094510;28;20209;-84
2021/12/02 11:19:37;;;;;;;1.20;0.90;;;4.00;99.90;;;;;;5095217;28;20188;-84
2021/12/02 11:22:09;;;;;;;1.30;0.90;;;4.00;99.90;;;;;;5094635;28;20258;-84
2021/12/02 11:24:36;;;;;;;1.48;0.90;;;3.90;99.90;;;;;;5095317;28;20193;-84
2021/12/02 11:27:16;;;;;;;2.20;0.90;;;4.00;99.90;;;;;;5094654;28;20223;-84
2021/12/02 11:29:57;;;;;;;1.75;0.90;;;4.00;99.90;;;;;;5095035;28;20219;-84
2021/12/02 11:32:31;;;;;;;2.33;0.95;;;4.00;99.90;;;;;;5094718;28;20267;-84
2021/12/02 11:35:05;;;;;;;1.77;0.98;;;4.10;99.90;;;;;;5094300;28;20188;-85
2021/12/02 11:37:33;;;;;;;2.90;0.82;;;4.10;99.90;;;;;;5094136;28;20574;-84
2021/12/02 11:40:04;;;;;;;2.38;0.88;;;4.10;99.90;;;;;;5094086;28;20627;-84
2021/12/02 11:42:30;;;;;;;2.10;0.80;;;4.10;99.90;;;;;;5094091;28;20208;-84
2021/12/02 11:44:57;;;;;;;4.00;0.88;;;4.00;99.90;;;;;;5094250;28;20577;-84
2021/12/02 11:47:23;;;;;;;1.00;0.90;;;4.00;99.90;;;;;;5094234;28;20191;-84
2021/12/02 11:49:52;;;;;;;6.32;1.33;;;4.10;99.90;;;;;;5094069;28;20250;-84
2021/12/02 11:52:19;;;;;;;0.75;0.60;;;4.10;99.90;;;;;;5094373;28;20228;-84
2021/12/02 11:54:45;;;;;;;1.52;0.80;;;4.10;99.90;;;;;;5094063;28;20252;-84
2021/12/02 11:57:12;;;;;;;2.67;0.95;;;4.10;99.90;;;;;;5094251;28;20212;-84
2021/12/02 11:59:38;;;;;;;2.40;1.60;;;4.10;99.90;;;;;;5094180;28;20216;-84
2021/12/02 12:02:05;;;;;;;1.63;1.00;;;4.10;99.90;;;;;;5093770;28;20243;-84
2021/12/02 12:04:35;;;;;;;1.50;1.00;;;4.20;99.90;;;;;;5091020;28;20196;-84
2021/12/02 12:07:12;;;;;;;2.08;1.33;;;4.20;99.90;;;;;;5092608;28;20199;-84
2021/12/02 12:09:39;;;;;;;1.00;0.90;;;4.20;99.90;;;;;;5093124;28;20635;-84
2021/12/02 12:12:06;;;;;;;1.30;0.80;;;4.30;99.90;;;;;;5093809;28;20279;-84
2021/12/02 12:14:37;;;;;;;5.53;0.90;;;4.30;99.90;;;;;;5093398;28;20264;-85
2021/12/02 12:17:09;;;;;;;1.98;0.93;;;4.40;99.90;;;;;;5093418;28;20185;-87
2021/12/02 12:19:41;;;;;;;3.67;0.88;;;4.40;99.90;;;;;;5093489;28;20267;-85
2021/12/02 12:22:11;;;;;;;1.27;0.90;;;4.50;99.90;;;;;;5093904;28;20267;-85
2021/12/02 12:24:46;;;;;;;1.10;0.90;;;4.50;99.90;;;;;;5093584;28;20189;-85
2021/12/02 12:27:15;;;;;;;2.42;1.20;;;4.60;99.90;;;;;;5093255;28;20663;-85
2021/12/02 12:29:43;;;;;;;0.93;0.68;;;4.70;99.90;;;;;;5093704;28;20698;-83
2021/12/02 12:35:22;;;;;;;3.08;1.00;;;4.90;99.90;;;;;;5094251;28;20640;-86
2021/12/02 12:40:43;;;;;;;2.55;0.70;;;5.10;99.90;;;;;;5093296;28;20632;-86
2021/12/02 12:43:23;;;;;;;1.50;1.30;;;5.10;99.90;;;;;;5093289;28;20210;-86
2021/12/02 12:45:50;;;;;;;1.35;1.00;;;5.20;99.90;;;;;;5093315;28;20238;-86
2021/12/02 12:48:29;;;;;;;2.65;1.08;;;5.20;99.90;;;;;;5093169;28;20184;-86
2021/12/02 12:51:11;;;;;;;1.05;0.80;;;5.30;99.90;;;;;;5092642;28;20216;-86
2021/12/02 12:53:43;;;;;;;2.42;0.80;;;5.20;99.90;;;;;;5092948;28;20275;-86
2021/12/02 12:56:11;;;;;;;2.28;1.00;;;5.20;99.90;;;;;;5093029;28;20294;-86
2021/12/02 12:58:58;;;;;;;2.10;1.00;;;5.20;99.90;;;;;;5093471;28;20184;-86
2021/12/02 13:01:26;;;;;;;3.15;1.25;;;5.20;99.90;;;;;;5093036;28;20647;-86
2021/12/02 13:04:16;;;;;;;1.38;1.00;;;5.10;99.90;;;;;;5081961;28;20584;-86
2021/12/02 13:07:05;;;;;;;2.30;1.10;;;5.10;99.90;;;;;;5092943;28;20216;-86
2021/12/02 13:09:44;;;;;;;3.53;0.70;;;5.00;99.90;;;;;;5092692;28;20219;-86
2021/12/02 13:12:13;;;;;;;2.60;0.73;;;5.00;99.90;;;;;;5077661;28;20185;-86
2021/12/02 13:14:41;;;;;;;1.30;0.88;;;5.00;99.90;;;;;;5092793;28;20191;-86
2021/12/02 13:17:42;;;;;;;1.92;0.98;;;4.90;99.90;;;;;;5093301;28;20208;-85
2021/12/02 13:20:22;;;;;;;4.40;1.30;;;4.80;99.90;;;;;;5077423;28;20249;-85